createdAt,value
2023-04-29T00:00:07.193Z,14.02
2023-04-29T00:00:24.875Z,17.10
2023-04-29T00:00:36.715Z,16.33
2023-04-29T00:00:48.641Z,10.07
2023-04-29T00:01:00.505Z,11.38
2023-04-29T00:01:12.323Z,13.85
2023-04-29T00:01:24.105Z,17.98
2023-04-29T00:01:35.999Z,16.30
2023-04-29T00:01:47.824Z,12.48
2023-04-29T00:01:59.538Z,10.68
2023-04-29T00:02:11.308Z,16.90
2023-04-29T00:02:23.725Z,22.88
2023-04-29T00:02:36.023Z,15.30
2023-04-29T00:02:48.157Z,13.15
2023-04-29T00:03:00.349Z,13.13
2023-04-29T00:03:12.588Z,12.85
2023-04-29T00:03:24.611Z,14.07
2023-04-29T00:03:36.647Z,14.55
2023-04-29T00:03:48.721Z,16.90
2023-04-29T00:04:00.737Z,14.70
2023-04-29T00:04:12.955Z,14.43
2023-04-29T00:04:24.987Z,18.73
2023-04-29T00:04:37.218Z,20.40
2023-04-29T00:04:49.520Z,23.42
2023-04-29T00:05:01.962Z,16.92
2023-04-29T00:05:14.222Z,11.27
2023-04-29T00:05:26.505Z,8.50
2023-04-29T00:05:38.702Z,14.85
2023-04-29T00:05:50.847Z,16.85
2023-04-29T00:06:02.973Z,15.60
2023-04-29T00:06:15.377Z,14.93
2023-04-29T00:06:27.386Z,15.40
2023-04-29T00:06:39.252Z,15.70
2023-04-29T00:06:50.957Z,18.98
2023-04-29T00:07:02.797Z,17.70
2023-04-29T00:07:14.589Z,13.13
2023-04-29T00:07:26.446Z,13.40
2023-04-29T00:07:38.296Z,13.68
2023-04-29T00:07:50.173Z,13.55
2023-04-29T00:08:02.044Z,13.05
2023-04-29T00:08:13.824Z,11.85
2023-04-29T00:08:25.686Z,11.82
2023-04-29T00:08:37.464Z,10.30
2023-04-29T00:08:49.546Z,9.55
2023-04-29T00:09:01.395Z,10.30
2023-04-29T00:09:13.302Z,15.07
2023-04-29T00:09:25.197Z,19.75
2023-04-29T00:09:37.177Z,16.83
2023-04-29T00:09:48.994Z,15.57
2023-04-29T00:10:01.082Z,11.40
2023-04-29T00:10:12.900Z,11.20
2023-04-29T00:10:24.861Z,14.35
2023-04-29T00:10:36.625Z,15.82
2023-04-29T00:10:48.527Z,12.93
2023-04-29T00:11:00.339Z,15.52
2023-04-29T00:11:12.277Z,16.60
2023-04-29T00:11:24.127Z,16.95
2023-04-29T00:11:35.917Z,13.45
2023-04-29T00:11:47.695Z,13.85
2023-04-29T00:11:59.343Z,14.63
2023-04-29T00:12:11.144Z,16.45
2023-04-29T00:12:23.254Z,15.07
2023-04-29T00:12:35.129Z,13.85
2023-04-29T00:12:47.010Z,15.00
2023-04-29T00:12:58.813Z,12.90
2023-04-29T00:13:10.616Z,11.38
2023-04-29T00:13:22.495Z,10.38
2023-04-29T00:13:34.354Z,13.38
2023-04-29T00:13:46.149Z,14.25
2023-04-29T00:13:57.869Z,13.82
2023-04-29T00:14:09.796Z,17.08
2023-04-29T00:14:21.645Z,17.75
2023-04-29T00:14:34.787Z,16.45
2023-04-29T00:14:46.617Z,16.77
2023-04-29T00:14:58.391Z,13.75
2023-04-29T00:15:11.176Z,13.35
2023-04-29T00:15:23.043Z,13.70
2023-04-29T00:15:34.895Z,14.40
2023-04-29T00:15:46.744Z,13.55
2023-04-29T00:15:58.655Z,11.82
2023-04-29T00:16:10.415Z,13.75
2023-04-29T00:16:22.235Z,16.52
2023-04-29T00:16:34.202Z,16.25
2023-04-29T00:16:46.049Z,15.15
2023-04-29T00:16:57.951Z,10.90
2023-04-29T00:17:10.013Z,12.18
2023-04-29T00:17:21.919Z,12.00
2023-04-29T00:17:33.931Z,13.50
2023-04-29T00:17:45.938Z,14.52
2023-04-29T00:17:57.991Z,16.85
2023-04-29T00:18:10.285Z,18.08
2023-04-29T00:18:29.595Z,16.42
2023-04-29T00:18:41.646Z,15.93
2023-04-29T00:18:53.588Z,16.02
2023-04-29T00:19:05.549Z,12.85
2023-04-29T00:19:17.556Z,13.30
2023-04-29T00:19:29.256Z,13.27
2023-04-29T00:19:40.949Z,13.93
2023-04-29T00:19:53.517Z,16.63
2023-04-29T00:20:07.925Z,16.13
2023-04-29T00:20:20.541Z,17.08
2023-04-29T00:20:32.423Z,18.02
2023-04-29T00:20:44.162Z,15.10
2023-04-29T00:20:56.017Z,15.85
2023-04-29T00:21:07.906Z,12.05
2023-04-29T00:21:19.758Z,12.85
2023-04-29T00:21:31.740Z,14.32
2023-04-29T00:21:43.580Z,14.30
2023-04-29T00:21:55.510Z,12.10
2023-04-29T00:22:07.246Z,12.52
2023-04-29T00:22:19.017Z,16.90
2023-04-29T00:22:30.868Z,16.23
2023-04-29T00:22:42.719Z,13.15
2023-04-29T00:22:54.668Z,10.20
2023-04-29T00:23:06.616Z,10.55
2023-04-29T00:23:18.570Z,10.95
2023-04-29T00:23:30.428Z,14.80
2023-04-29T00:23:42.296Z,16.85
2023-04-29T00:23:54.347Z,16.08
2023-04-29T00:24:07.014Z,14.40
2023-04-29T00:24:18.798Z,13.57
2023-04-29T00:24:30.538Z,10.98
2023-04-29T00:24:42.360Z,9.07
2023-04-29T00:24:54.165Z,9.38
2023-04-29T00:25:07.344Z,9.73
2023-04-29T00:25:19.240Z,10.68
2023-04-29T00:25:31.037Z,13.82
2023-04-29T00:25:42.878Z,13.68
2023-04-29T00:25:54.585Z,12.13
2023-04-29T00:26:06.317Z,14.77
2023-04-29T00:26:18.144Z,13.52
2023-04-29T00:26:32.357Z,13.48
2023-04-29T00:26:44.584Z,11.65
2023-04-29T00:26:56.314Z,13.77
2023-04-29T00:27:08.235Z,11.27
2023-04-29T00:27:19.956Z,11.75
2023-04-29T00:27:32.445Z,13.13
2023-04-29T00:27:44.432Z,13.75
2023-04-29T00:27:56.366Z,13.65
2023-04-29T00:28:08.370Z,12.10
2023-04-29T00:28:20.227Z,14.93
2023-04-29T00:28:32.080Z,12.10
2023-04-29T00:28:43.887Z,13.75
2023-04-29T00:28:55.944Z,14.10
2023-04-29T00:29:07.751Z,15.48
2023-04-29T00:29:19.594Z,14.60
2023-04-29T00:29:31.564Z,14.35
2023-04-29T00:29:45.110Z,13.27
2023-04-29T00:29:57.174Z,16.27
2023-04-29T00:30:09.703Z,15.50
2023-04-29T00:30:21.464Z,14.90
2023-04-29T00:30:33.342Z,8.38
2023-04-29T00:30:45.204Z,8.65
2023-04-29T00:30:57.314Z,13.43
2023-04-29T00:31:09.247Z,14.23
2023-04-29T00:31:21.054Z,10.57
2023-04-29T00:31:33.237Z,13.13
2023-04-29T00:31:45.294Z,13.38
2023-04-29T00:31:56.992Z,11.57
2023-04-29T00:32:08.959Z,9.45
2023-04-29T00:32:20.766Z,10.95
2023-04-29T00:32:32.630Z,11.13
2023-04-29T00:32:44.472Z,15.50
2023-04-29T00:32:56.808Z,14.45
2023-04-29T00:33:08.845Z,13.63
2023-04-29T00:33:20.678Z,12.00
2023-04-29T00:33:32.588Z,19.10
2023-04-29T00:33:44.388Z,17.83
2023-04-29T00:33:56.219Z,12.65
2023-04-29T00:34:08.158Z,11.23
2023-04-29T00:34:20.121Z,12.73
2023-04-29T00:34:31.901Z,12.32
2023-04-29T00:34:43.798Z,10.68
2023-04-29T00:34:55.671Z,13.18
2023-04-29T00:35:08.542Z,12.63
2023-04-29T00:35:20.400Z,11.13
2023-04-29T00:35:32.157Z,12.43
2023-04-29T00:35:43.923Z,13.35
2023-04-29T00:35:55.631Z,12.07
2023-04-29T00:36:07.733Z,11.43
2023-04-29T00:36:19.545Z,10.88
2023-04-29T00:36:31.313Z,12.50
2023-04-29T00:36:43.307Z,11.88
2023-04-29T00:36:55.023Z,9.32
2023-04-29T00:37:07.110Z,13.68
2023-04-29T00:37:18.905Z,13.93
2023-04-29T00:37:31.215Z,12.34
2023-04-29T00:37:43.656Z,12.30
2023-04-29T00:37:55.499Z,13.95
2023-04-29T00:38:07.304Z,13.40
2023-04-29T00:38:19.246Z,12.30
2023-04-29T00:38:31.043Z,14.68
2023-04-29T00:38:42.926Z,12.70
2023-04-29T00:38:54.709Z,11.57
2023-04-29T00:39:06.583Z,9.60
2023-04-29T00:39:18.450Z,11.13
2023-04-29T00:39:30.330Z,11.15
2023-04-29T00:39:42.106Z,11.32
2023-04-29T00:39:54.170Z,11.90
2023-04-29T00:40:07.845Z,12.27
2023-04-29T00:40:19.703Z,9.82
2023-04-29T00:40:31.505Z,10.35
2023-04-29T00:40:43.243Z,13.88
2023-04-29T00:40:55.780Z,12.60
2023-04-29T00:41:07.732Z,10.48
2023-04-29T00:41:19.697Z,9.05
2023-04-29T00:41:32.602Z,11.27
2023-04-29T00:41:44.485Z,12.27
2023-04-29T00:41:56.252Z,11.52
2023-04-29T00:42:08.484Z,16.08
2023-04-29T00:42:20.932Z,15.02
2023-04-29T00:42:33.063Z,13.88
2023-04-29T00:42:45.111Z,12.07
2023-04-29T00:42:57.076Z,10.70
2023-04-29T00:43:09.011Z,11.48
2023-04-29T00:43:20.979Z,11.35
2023-04-29T00:43:32.947Z,11.85
2023-04-29T00:43:44.827Z,10.32
2023-04-29T00:43:56.691Z,16.15
2023-04-29T00:44:08.679Z,19.20
2023-04-29T00:44:20.557Z,15.82
2023-04-29T00:44:32.467Z,15.00
2023-04-29T00:44:45.680Z,10.52
2023-04-29T00:44:58.667Z,10.65
2023-04-29T00:45:11.647Z,10.45
2023-04-29T00:45:23.563Z,11.20
2023-04-29T00:45:35.571Z,15.73
2023-04-29T00:45:47.496Z,16.83
2023-04-29T00:45:59.968Z,18.10
2023-04-29T00:46:11.830Z,12.68
2023-04-29T00:46:23.774Z,9.05
2023-04-29T00:46:35.651Z,10.15
2023-04-29T00:46:47.695Z,11.73
2023-04-29T00:46:59.581Z,13.10
2023-04-29T00:47:11.445Z,14.82
2023-04-29T00:47:23.412Z,12.77
2023-04-29T00:47:35.316Z,12.02
2023-04-29T00:47:47.233Z,11.70
2023-04-29T00:47:59.218Z,11.40
2023-04-29T00:48:11.115Z,11.05
2023-04-29T00:48:22.991Z,11.10
2023-04-29T00:48:34.874Z,14.13
2023-04-29T00:48:46.792Z,18.90
2023-04-29T00:48:59.297Z,15.90
2023-04-29T00:49:12.298Z,7.88
2023-04-29T00:49:25.042Z,7.60
2023-04-29T00:49:38.516Z,8.57
2023-04-29T00:49:50.611Z,11.63
2023-04-29T00:50:02.811Z,11.68
2023-04-29T00:50:14.731Z,10.02
2023-04-29T00:50:27.036Z,11.15
2023-04-29T00:50:40.289Z,13.88
2023-04-29T00:50:52.133Z,12.30
2023-04-29T00:51:05.796Z,12.40
2023-04-29T00:51:18.525Z,11.75
2023-04-29T00:51:30.854Z,9.82
2023-04-29T00:51:42.955Z,12.46
2023-04-29T00:51:57.651Z,12.77
2023-04-29T00:52:11.066Z,10.15
2023-04-29T00:52:23.268Z,8.55
2023-04-29T00:52:37.291Z,8.02
2023-04-29T00:52:49.474Z,9.80
2023-04-29T00:53:01.552Z,11.02
2023-04-29T00:53:14.377Z,9.70
2023-04-29T00:53:26.464Z,12.02
2023-04-29T00:53:39.023Z,12.65
2023-04-29T00:53:51.206Z,13.07
2023-04-29T00:54:03.235Z,12.20
2023-04-29T00:54:16.045Z,14.30
2023-04-29T00:54:28.120Z,14.05
2023-04-29T00:54:40.883Z,16.23
2023-04-29T00:54:53.060Z,17.20
2023-04-29T00:55:07.764Z,17.25
2023-04-29T00:55:20.797Z,14.45
2023-04-29T00:55:33.882Z,14.98
2023-04-29T00:55:46.955Z,11.77
2023-04-29T00:56:00.284Z,9.05
2023-04-29T00:56:12.301Z,9.10
2023-04-29T00:56:24.296Z,13.73
2023-04-29T00:56:37.657Z,14.88
2023-04-29T00:56:51.069Z,11.35
2023-04-29T00:57:03.920Z,10.15
2023-04-29T00:57:15.730Z,8.88
2023-04-29T00:57:28.650Z,11.18
2023-04-29T00:57:40.406Z,10.48
2023-04-29T00:57:53.096Z,8.70
2023-04-29T00:58:04.978Z,8.27
2023-04-29T00:58:17.772Z,11.00
2023-04-29T00:58:30.228Z,13.40
2023-04-29T00:58:42.162Z,10.20
2023-04-29T00:58:54.052Z,10.35
2023-04-29T00:59:06.361Z,11.13
2023-04-29T00:59:18.641Z,10.07
2023-04-29T00:59:30.602Z,7.53
2023-04-29T00:59:43.141Z,8.90
2023-04-29T00:59:57.341Z,11.32
2023-04-29T01:00:10.282Z,12.10
2023-04-29T01:00:22.632Z,12.43
2023-04-29T01:00:34.609Z,15.82
2023-04-29T01:00:47.696Z,16.27
2023-04-29T01:01:00.881Z,13.40
2023-04-29T01:01:13.072Z,13.18
2023-04-29T01:01:25.043Z,14.07
2023-04-29T01:01:37.174Z,14.02
2023-04-29T01:01:49.225Z,8.50
2023-04-29T01:02:02.272Z,17.77
2023-04-29T01:02:14.185Z,24.02
2023-04-29T01:02:26.266Z,23.85
2023-04-29T01:02:38.715Z,14.18
2023-04-29T01:02:51.203Z,10.50
2023-04-29T01:03:05.323Z,12.48
2023-04-29T01:03:17.749Z,11.98
2023-04-29T01:03:30.924Z,11.27
2023-04-29T01:03:43.636Z,12.02
2023-04-29T01:03:56.641Z,12.00
2023-04-29T01:04:09.776Z,14.15
2023-04-29T01:04:22.710Z,15.82
2023-04-29T01:04:34.941Z,16.77
2023-04-29T01:04:47.028Z,12.95
2023-04-29T01:04:59.003Z,7.18
2023-04-29T01:05:10.831Z,10.82
2023-04-29T01:05:22.926Z,13.57
2023-04-29T01:05:34.755Z,12.60
2023-04-29T01:05:53.340Z,12.85
2023-04-29T01:06:13.546Z,8.48
2023-04-29T01:06:39.306Z,10.98
2023-04-29T01:07:01.545Z,10.00
2023-04-29T01:07:16.358Z,12.70
2023-04-29T01:07:34.874Z,11.55
2023-04-29T01:07:59.004Z,9.90
2023-04-29T01:08:23.850Z,8.20
2023-04-29T01:08:51.531Z,8.75
2023-04-29T01:09:17.523Z,13.55
2023-04-29T01:09:55.824Z,9.95
2023-04-29T01:10:14.390Z,16.73
2023-04-29T01:10:28.883Z,16.60
2023-04-29T01:10:48.755Z,10.82
2023-04-29T01:11:09.656Z,11.80
2023-04-29T01:11:24.371Z,13.30
2023-04-29T01:11:49.886Z,14.73
2023-04-29T01:12:11.416Z,14.90
2023-04-29T01:12:33.079Z,15.27
2023-04-29T01:12:49.736Z,10.25
2023-04-29T01:13:09.960Z,8.63
2023-04-29T01:13:29.590Z,10.27
2023-04-29T01:13:45.571Z,9.60
2023-04-29T01:14:00.216Z,12.70
2023-04-29T01:14:12.921Z,12.73
2023-04-29T01:14:25.757Z,12.20
2023-04-29T01:14:39.469Z,11.32
2023-04-29T01:15:03.193Z,9.38
2023-04-29T01:15:22.348Z,8.25
2023-04-29T01:15:44.186Z,9.70
2023-04-29T01:16:09.329Z,9.77
2023-04-29T01:16:25.185Z,8.88
2023-04-29T01:16:48.160Z,11.60
2023-04-29T01:17:10.154Z,10.48
2023-04-29T01:17:25.977Z,8.75
2023-04-29T01:17:42.975Z,10.77
2023-04-29T01:18:00.367Z,10.32
2023-04-29T01:18:18.898Z,8.70
2023-04-29T01:18:36.898Z,13.65
2023-04-29T01:18:55.681Z,12.95
2023-04-29T01:19:19.503Z,9.23
2023-04-29T01:19:40.037Z,8.55
2023-04-29T01:19:55.553Z,12.43
2023-04-29T01:20:09.492Z,11.57
2023-04-29T01:20:22.698Z,9.07
2023-04-29T01:20:35.512Z,9.18
2023-04-29T01:20:48.198Z,9.60
2023-04-29T01:21:00.269Z,10.85
2023-04-29T01:21:12.094Z,9.65
2023-04-29T01:21:25.558Z,8.45
2023-04-29T01:21:46.353Z,9.50
2023-04-29T01:21:58.222Z,11.07
2023-04-29T01:22:10.147Z,9.20
2023-04-29T01:22:22.329Z,11.57
2023-04-29T01:22:34.288Z,17.52
2023-04-29T01:22:46.255Z,16.45
2023-04-29T01:22:58.547Z,16.23
2023-04-29T01:23:11.311Z,12.63
2023-04-29T01:23:28.177Z,8.68
2023-04-29T01:23:40.865Z,8.15
2023-04-29T01:23:53.063Z,9.23
2023-04-29T01:24:05.149Z,10.85
2023-04-29T01:24:18.894Z,11.50
2023-04-29T01:24:32.665Z,14.48
2023-04-29T01:24:44.733Z,15.57
2023-04-29T01:24:56.849Z,14.52
2023-04-29T01:25:09.561Z,16.02
2023-04-29T01:25:40.913Z,10.50
2023-04-29T01:26:11.485Z,14.90
2023-04-29T01:26:46.206Z,11.27
2023-04-29T01:27:26.308Z,10.77
2023-04-29T01:27:48.233Z,9.38
2023-04-29T01:28:08.615Z,11.65
2023-04-29T01:28:29.727Z,9.48
2023-04-29T01:28:50.716Z,8.38
2023-04-29T01:29:33.029Z,9.52
2023-04-29T01:29:53.548Z,8.88
2023-04-29T01:30:17.444Z,13.20
2023-04-29T01:30:38.879Z,12.13
2023-04-29T01:30:57.176Z,6.35
2023-04-29T01:31:15.471Z,11.13
2023-04-29T01:31:32.666Z,9.80
2023-04-29T01:31:49.401Z,8.60
2023-04-29T01:32:06.150Z,9.95
2023-04-29T01:32:24.357Z,10.25
2023-04-29T01:32:46.883Z,11.63
2023-04-29T01:33:12.509Z,9.25
2023-04-29T01:33:33.119Z,10.57
2023-04-29T01:33:50.976Z,7.43
2023-04-29T01:34:10.295Z,10.70
2023-04-29T01:34:29.254Z,9.52
2023-04-29T01:34:46.877Z,9.50
2023-04-29T01:35:16.144Z,10.73
2023-04-29T01:35:52.010Z,10.57
2023-04-29T01:36:23.033Z,8.35
2023-04-29T01:36:45.154Z,12.52
2023-04-29T01:37:04.593Z,8.55
2023-04-29T01:37:33.626Z,8.52
2023-04-29T01:37:56.044Z,17.05
2023-04-29T01:38:16.920Z,12.98
2023-04-29T01:38:37.489Z,10.32
2023-04-29T01:38:57.162Z,14.18
2023-04-29T01:39:15.349Z,10.00
2023-04-29T01:39:37.784Z,11.63
2023-04-29T01:40:04.984Z,12.66
2023-04-29T01:40:26.442Z,11.63
2023-04-29T01:40:58.711Z,9.38
2023-04-29T01:41:15.175Z,13.90
2023-04-29T01:41:35.224Z,13.63
2023-04-29T01:42:02.014Z,15.60
2023-04-29T01:42:22.617Z,13.55
2023-04-29T01:42:39.455Z,6.10
2023-04-29T01:43:01.628Z,9.20
2023-04-29T01:43:15.631Z,12.82
2023-04-29T01:43:33.743Z,10.35
2023-04-29T01:43:56.726Z,12.20
2023-04-29T01:44:15.871Z,14.00
2023-04-29T01:44:30.810Z,8.85
2023-04-29T01:44:44.624Z,6.85
2023-04-29T01:45:00.828Z,6.85
2023-04-29T01:45:15.940Z,10.23
2023-04-29T01:45:29.834Z,14.25
2023-04-29T01:45:41.988Z,14.02
2023-04-29T01:45:56.582Z,10.98
2023-04-29T01:46:10.637Z,12.98
2023-04-29T01:46:22.933Z,16.33
2023-04-29T01:46:41.585Z,11.57
2023-04-29T01:46:55.177Z,10.85
2023-04-29T01:47:14.449Z,9.00
2023-04-29T01:47:32.702Z,8.63
2023-04-29T01:47:46.881Z,6.95
2023-04-29T01:48:00.886Z,8.23
2023-04-29T01:48:13.478Z,12.63
2023-04-29T01:48:31.257Z,12.48
2023-04-29T01:48:43.471Z,10.23
2023-04-29T01:48:55.598Z,10.10
2023-04-29T01:49:07.785Z,9.60
2023-04-29T01:49:20.951Z,15.57
2023-04-29T01:49:36.312Z,20.55
2023-04-29T01:49:49.596Z,15.60
2023-04-29T01:50:01.491Z,9.52
2023-04-29T01:50:13.868Z,8.48
2023-04-29T01:50:26.202Z,9.05
2023-04-29T01:50:39.574Z,12.63
2023-04-29T01:51:02.102Z,10.68
2023-04-29T01:51:14.184Z,10.30
2023-04-29T01:51:26.660Z,10.35
2023-04-29T01:51:38.591Z,11.20
2023-04-29T01:51:50.527Z,9.95
2023-04-29T01:52:02.365Z,13.30
2023-04-29T01:52:15.520Z,11.70
2023-04-29T01:52:35.871Z,8.07
2023-04-29T01:52:48.012Z,10.10
2023-04-29T01:53:00.624Z,11.45
2023-04-29T01:53:12.653Z,13.32
2023-04-29T01:53:25.140Z,14.80
2023-04-29T01:53:39.237Z,14.18
2023-04-29T01:53:51.183Z,14.30
2023-04-29T01:54:03.912Z,13.02
2023-04-29T01:54:15.923Z,8.68
2023-04-29T01:54:28.906Z,10.20
2023-04-29T01:54:42.363Z,10.48
2023-04-29T01:54:54.490Z,9.13
2023-04-29T01:55:07.673Z,11.48
2023-04-29T01:55:42.124Z,7.43
2023-04-29T01:56:03.203Z,7.72
2023-04-29T01:56:27.992Z,11.45
2023-04-29T01:56:50.965Z,9.38
2023-04-29T01:57:09.929Z,8.35
2023-04-29T01:57:38.561Z,13.63
2023-04-29T01:58:14.162Z,14.27
2023-04-29T01:58:39.028Z,11.48
2023-04-29T01:59:13.471Z,13.63
2023-04-29T01:59:40.338Z,8.80
2023-04-29T02:00:12.592Z,14.05
2023-04-29T02:00:32.421Z,12.98
2023-04-29T02:00:44.569Z,12.88
2023-04-29T02:00:56.676Z,13.98
2023-04-29T02:01:09.521Z,10.80
2023-04-29T02:01:22.227Z,11.30
2023-04-29T02:01:34.177Z,9.90
2023-04-29T02:01:46.989Z,8.32
2023-04-29T02:01:59.043Z,6.95
2023-04-29T02:02:11.527Z,10.02
2023-04-29T02:02:31.041Z,12.30
2023-04-29T02:02:52.431Z,13.73
2023-04-29T02:03:14.003Z,18.50
2023-04-29T02:03:29.749Z,14.85
2023-04-29T02:03:42.840Z,8.02
2023-04-29T02:03:56.520Z,9.20
2023-04-29T02:04:08.493Z,9.68
2023-04-29T02:04:21.813Z,10.00
2023-04-29T02:04:33.980Z,9.93
2023-04-29T02:04:47.566Z,10.13
2023-04-29T02:04:59.662Z,11.23
2023-04-29T02:05:11.775Z,11.98
2023-04-29T02:05:27.314Z,11.70
2023-04-29T02:05:43.325Z,8.77
2023-04-29T02:05:55.236Z,8.30
2023-04-29T02:06:07.157Z,11.70
2023-04-29T02:06:20.243Z,10.95
2023-04-29T02:06:37.521Z,9.95
2023-04-29T02:06:50.479Z,9.85
2023-04-29T02:07:04.116Z,8.65
2023-04-29T02:07:16.704Z,9.50
2023-04-29T02:07:30.237Z,9.68
2023-04-29T02:07:42.810Z,11.88
2023-04-29T02:07:55.296Z,10.02
2023-04-29T02:08:07.900Z,10.20
2023-04-29T02:08:24.301Z,10.55
2023-04-29T02:08:38.932Z,8.32
2023-04-29T02:08:51.703Z,7.68
2023-04-29T02:09:04.300Z,8.70
2023-04-29T02:09:18.530Z,12.95
2023-04-29T02:09:36.339Z,11.60
2023-04-29T02:09:54.377Z,11.23
2023-04-29T02:10:08.865Z,12.75
2023-04-29T02:10:23.835Z,12.30
2023-04-29T02:10:52.042Z,10.52
2023-04-29T02:11:13.765Z,10.00
2023-04-29T02:11:27.367Z,13.85
2023-04-29T02:11:41.706Z,12.52
2023-04-29T02:11:53.675Z,9.60
2023-04-29T02:12:05.774Z,8.27
2023-04-29T02:12:18.174Z,9.35
2023-04-29T02:12:30.094Z,10.48
2023-04-29T02:12:41.975Z,16.45
2023-04-29T02:12:54.018Z,20.90
2023-04-29T02:13:06.199Z,17.65
2023-04-29T02:13:18.174Z,14.38
2023-04-29T02:13:30.145Z,13.32
2023-04-29T02:13:41.968Z,11.57
2023-04-29T02:13:55.142Z,9.35
2023-04-29T02:14:07.560Z,12.18
2023-04-29T02:14:19.612Z,13.60
2023-04-29T02:14:31.420Z,13.35
2023-04-29T02:14:43.671Z,17.23
2023-04-29T02:14:55.710Z,13.77
2023-04-29T02:15:09.088Z,13.50
2023-04-29T02:15:21.193Z,11.88
2023-04-29T02:15:33.088Z,13.73
2023-04-29T02:15:45.021Z,13.32
2023-04-29T02:15:57.371Z,9.40
2023-04-29T02:16:10.110Z,9.65
2023-04-29T02:16:24.036Z,11.20
2023-04-29T02:16:45.056Z,12.07
2023-04-29T02:16:57.172Z,17.17
2023-04-29T02:17:09.177Z,16.98
2023-04-29T02:17:21.754Z,15.50
2023-04-29T02:17:33.933Z,14.55
2023-04-29T02:17:45.827Z,10.70
2023-04-29T02:17:57.642Z,10.55
2023-04-29T02:18:09.398Z,12.98
2023-04-29T02:18:21.281Z,12.65
2023-04-29T02:18:34.070Z,8.98
2023-04-29T02:18:46.425Z,7.20
2023-04-29T02:18:58.432Z,7.35
2023-04-29T02:19:10.276Z,7.47
2023-04-29T02:19:23.884Z,6.78
2023-04-29T02:19:38.985Z,9.25
2023-04-29T02:19:51.339Z,8.98
2023-04-29T02:20:04.139Z,9.40
2023-04-29T02:20:16.435Z,9.07
2023-04-29T02:20:28.407Z,8.38
2023-04-29T02:20:41.170Z,9.10
2023-04-29T02:21:00.881Z,9.75
2023-04-29T02:21:13.524Z,12.77
2023-04-29T02:21:25.698Z,15.63
2023-04-29T02:21:38.110Z,16.40
2023-04-29T02:21:50.128Z,11.43
2023-04-29T02:22:03.640Z,11.70
2023-04-29T02:22:15.755Z,11.25
2023-04-29T02:22:27.776Z,10.82
2023-04-29T02:22:41.455Z,10.93
2023-04-29T02:22:53.335Z,13.23
2023-04-29T02:23:05.737Z,16.90
2023-04-29T02:23:17.702Z,14.88
2023-04-29T02:23:29.808Z,14.60
2023-04-29T02:23:43.252Z,9.70
2023-04-29T02:23:55.129Z,16.35
2023-04-29T02:24:08.926Z,16.58
2023-04-29T02:24:20.925Z,10.10
2023-04-29T02:24:33.669Z,12.25
2023-04-29T02:24:45.616Z,16.25
2023-04-29T02:24:57.655Z,16.33
2023-04-29T02:25:10.736Z,8.65
2023-04-29T02:25:22.928Z,7.93
2023-04-29T02:25:35.303Z,9.02
2023-04-29T02:25:47.630Z,9.95
2023-04-29T02:25:59.858Z,9.82
2023-04-29T02:26:11.804Z,9.02
2023-04-29T02:26:23.651Z,6.78
2023-04-29T02:26:35.593Z,8.93
2023-04-29T02:26:47.669Z,11.43
2023-04-29T02:26:59.780Z,13.13
2023-04-29T02:27:11.600Z,14.48
2023-04-29T02:27:24.405Z,18.77
2023-04-29T02:27:36.245Z,20.52
2023-04-29T02:27:48.541Z,13.68
2023-04-29T02:28:01.189Z,14.90
2023-04-29T02:28:13.354Z,14.10
2023-04-29T02:28:26.266Z,14.07
2023-04-29T02:28:38.262Z,15.10
2023-04-29T02:28:50.111Z,15.80
2023-04-29T02:29:02.058Z,10.32
2023-04-29T02:29:13.941Z,8.57
2023-04-29T02:29:26.048Z,9.88
2023-04-29T02:29:39.565Z,16.40
2023-04-29T02:29:52.063Z,13.90
2023-04-29T02:30:05.150Z,10.30
2023-04-29T02:30:18.042Z,9.90
2023-04-29T02:30:31.317Z,10.25
2023-04-29T02:30:43.208Z,9.93
2023-04-29T02:30:55.312Z,14.95
2023-04-29T02:31:07.514Z,21.90
2023-04-29T02:31:19.641Z,18.58
2023-04-29T02:31:33.462Z,9.63
2023-04-29T02:31:45.658Z,10.65
2023-04-29T02:32:15.843Z,10.02
2023-04-29T02:32:27.932Z,12.20
2023-04-29T02:32:39.873Z,10.57
2023-04-29T02:32:51.791Z,8.48
2023-04-29T02:33:04.761Z,8.70
2023-04-29T02:33:17.833Z,12.98
2023-04-29T02:33:29.630Z,12.05
2023-04-29T02:33:41.445Z,7.75
2023-04-29T02:33:54.817Z,10.00
2023-04-29T02:34:06.639Z,12.10
2023-04-29T02:34:19.448Z,13.82
2023-04-29T02:34:31.250Z,10.65
2023-04-29T02:34:43.191Z,7.28
2023-04-29T02:34:55.121Z,9.25
2023-04-29T02:35:07.512Z,10.57
2023-04-29T02:35:19.404Z,10.60
2023-04-29T02:35:32.527Z,9.50
2023-04-29T02:35:44.599Z,11.00
2023-04-29T02:35:56.459Z,11.40
2023-04-29T02:36:08.348Z,10.27
2023-04-29T02:36:20.184Z,7.68
2023-04-29T02:36:32.843Z,8.07
2023-04-29T02:36:44.849Z,7.05
2023-04-29T02:36:56.956Z,11.15
2023-04-29T02:37:08.830Z,15.18
2023-04-29T02:37:20.681Z,14.00
2023-04-29T02:37:32.500Z,10.95
2023-04-29T02:37:44.537Z,7.32
2023-04-29T02:37:56.417Z,6.43
2023-04-29T02:38:08.411Z,8.30
2023-04-29T02:38:22.361Z,10.98
2023-04-29T02:38:34.315Z,10.93
2023-04-29T02:38:47.550Z,11.07
2023-04-29T02:38:59.858Z,10.05
2023-04-29T02:39:11.783Z,8.02
2023-04-29T02:39:23.757Z,6.70
2023-04-29T02:39:40.273Z,8.95
2023-04-29T02:39:52.388Z,10.70
2023-04-29T02:40:05.760Z,9.68
2023-04-29T02:40:18.067Z,8.57
2023-04-29T02:40:29.917Z,10.63
2023-04-29T02:40:44.708Z,11.15
2023-04-29T02:40:56.664Z,10.35
2023-04-29T02:41:08.557Z,9.82
2023-04-29T02:41:20.572Z,9.35
2023-04-29T02:41:33.282Z,9.23
2023-04-29T02:41:45.229Z,8.42
2023-04-29T02:41:57.095Z,9.43
2023-04-29T02:42:08.796Z,10.45
2023-04-29T02:42:21.738Z,7.75
2023-04-29T02:42:33.516Z,6.65
2023-04-29T02:42:46.667Z,6.90
2023-04-29T02:42:58.553Z,8.80
2023-04-29T02:43:13.582Z,11.38
2023-04-29T02:43:25.548Z,12.70
2023-04-29T02:43:37.529Z,15.18
2023-04-29T02:43:49.676Z,15.55
2023-04-29T02:44:01.620Z,14.15
2023-04-29T02:44:14.130Z,10.82
2023-04-29T02:44:26.618Z,10.80
2023-04-29T02:44:38.856Z,11.02
2023-04-29T02:44:50.741Z,14.75
2023-04-29T02:45:02.818Z,14.50
2023-04-29T02:45:15.135Z,12.20
2023-04-29T02:45:27.235Z,12.50
2023-04-29T02:45:39.875Z,10.15
2023-04-29T02:45:52.327Z,8.27
2023-04-29T02:46:04.530Z,8.73
2023-04-29T02:46:16.962Z,8.60
2023-04-29T02:46:29.005Z,9.70
2023-04-29T02:46:41.295Z,8.85
2023-04-29T02:46:53.409Z,7.35
2023-04-29T02:47:05.303Z,10.20
2023-04-29T02:47:17.692Z,10.38
2023-04-29T02:47:30.284Z,10.02
2023-04-29T02:47:42.229Z,10.07
2023-04-29T02:47:54.302Z,9.50
2023-04-29T02:48:06.811Z,10.40
2023-04-29T02:48:19.514Z,11.70
2023-04-29T02:48:31.690Z,12.25
2023-04-29T02:48:43.757Z,11.30
2023-04-29T02:48:56.440Z,10.82
2023-04-29T02:49:08.564Z,11.60
2023-04-29T02:49:20.429Z,17.30
2023-04-29T02:49:32.392Z,16.67
2023-04-29T02:49:44.311Z,11.07
2023-04-29T02:49:57.090Z,7.38
2023-04-29T02:50:09.527Z,9.43
2023-04-29T02:50:21.469Z,14.85
2023-04-29T02:50:33.756Z,15.02
2023-04-29T02:50:46.114Z,12.57
2023-04-29T02:50:58.184Z,11.23
2023-04-29T02:51:10.171Z,11.98
2023-04-29T02:51:21.960Z,11.98
2023-04-29T02:51:34.364Z,8.40
2023-04-29T02:51:46.159Z,14.70
2023-04-29T02:51:58.006Z,25.30
2023-04-29T02:52:09.976Z,22.50
2023-04-29T02:52:21.878Z,13.50
2023-04-29T02:52:33.764Z,10.23
2023-04-29T02:52:45.683Z,10.60
2023-04-29T02:52:57.616Z,11.23
2023-04-29T02:53:09.498Z,9.05
2023-04-29T02:53:21.406Z,7.57
2023-04-29T02:53:33.606Z,7.80
2023-04-29T02:53:46.992Z,7.13
2023-04-29T02:53:58.859Z,8.07
2023-04-29T02:54:10.775Z,7.50
2023-04-29T02:54:22.713Z,20.55
2023-04-29T02:54:34.676Z,20.50
2023-04-29T02:54:46.478Z,22.33
2023-04-29T02:54:58.384Z,13.45
2023-04-29T02:55:10.529Z,13.70
2023-04-29T02:55:22.450Z,9.52
2023-04-29T02:55:34.373Z,9.27
2023-04-29T02:55:51.980Z,9.63
2023-04-29T02:56:04.281Z,10.40
2023-04-29T02:56:16.408Z,13.05
2023-04-29T02:56:28.252Z,13.82
2023-04-29T02:56:39.927Z,13.18
2023-04-29T02:56:51.717Z,12.32
2023-04-29T02:57:03.665Z,14.45
2023-04-29T02:57:15.395Z,14.25
2023-04-29T02:57:27.202Z,11.57
2023-04-29T02:57:39.507Z,8.15
2023-04-29T02:57:51.341Z,8.65
2023-04-29T02:58:03.119Z,11.00
2023-04-29T02:58:15.101Z,11.15
2023-04-29T02:58:26.974Z,10.32
2023-04-29T02:58:38.851Z,9.45
2023-04-29T02:58:50.634Z,12.70
2023-04-29T02:59:02.585Z,14.35
2023-04-29T02:59:14.423Z,14.68
2023-04-29T02:59:26.210Z,12.18
2023-04-29T02:59:38.056Z,9.90
2023-04-29T02:59:50.071Z,6.97
2023-04-29T03:00:02.365Z,10.23
2023-04-29T03:00:14.462Z,11.88